Time;durP1;ratioP1;P1;durP2;ratioP2;P2;SDS_P1;SDS_P2;PMS_P1;PMS_P2;Temp;Humidity;BMP_temperature;BMP_pressure;BME280_temperature;BME280_humidity;BME280_pressure;Samples;Min_cycle;Max_cycle;Signal;HPM_P1;HPM_P2
2024/02/01 00:01:17;;;;;;;11.50;8.50;;;;;;;8.62;100.00;153572.28;5053701;28;20476;-95
2024/02/01 00:03:44;;;;;;;8.70;7.47;;;;;;;8.64;100.00;153577.44;5053902;28;21035;-94
2024/02/01 00:06:10;;;;;;;9.13;8.20;;;;;;;8.58;100.00;153564.53;5053749;28;20438;-95
2024/02/01 00:08:38;;;;;;;9.63;8.00;;;;;;;8.57;100.00;153560.66;5053937;28;20446;-95
2024/02/01 00:11:05;;;;;;;11.20;8.10;;;;;;;8.57;100.00;153561.97;5070254;28;20470;-95
2024/02/01 00:13:32;;;;;;;10.80;8.43;;;;;;;8.58;100.00;153564.53;5053676;28;20507;-95
2024/02/01 00:15:59;;;;;;;9.77;7.43;;;;;;;8.58;100.00;153564.53;5053533;28;20575;-95
2024/02/01 00:18:25;;;;;;;10.47;7.63;;;;;;;8.60;100.00;153567.13;5053715;28;20500;-95
2024/02/01 00:20:52;;;;;;;9.57;7.53;;;;;;;8.58;100.00;153564.53;5053496;28;20929;-96
2024/02/01 00:23:19;;;;;;;10.90;7.50;;;;;;;8.62;100.00;153573.59;5070348;28;20554;-95
2024/02/01 00:25:47;;;;;;;10.43;7.90;;;;;;;8.64;100.00;153577.44;5053635;28;20503;-94
2024/02/01 00:28:14;;;;;;;9.80;7.60;;;;;;;8.66;100.00;153583.91;5053458;28;20441;-95
2024/02/01 00:30:41;;;;;;;10.87;7.50;;;;;;;8.68;100.00;153587.81;5053238;28;20441;-94
2024/02/01 00:33:08;;;;;;;10.87;8.23;;;;;;;8.67;100.00;153585.22;5054430;28;20519;-94
2024/02/01 00:35:34;;;;;;;8.53;6.70;;;;;;;8.67;100.00;153585.22;5055415;28;20426;-95
2024/02/01 00:38:01;;;;;;;11.93;6.67;;;;;;;8.66;100.00;153582.66;5056926;28;20456;-94
2024/02/01 00:40:28;;;;;;;8.50;6.90;;;;;;;8.68;100.00;153587.81;5054839;28;20859;-94
2024/02/01 00:42:56;;;;;;;7.60;6.77;;;;;;;8.68;100.00;153587.81;5054292;28;20488;-94
2024/02/01 00:45:23;;;;;;;7.17;6.40;;;;;;;8.67;100.00;153585.22;5070774;28;20445;-95
2024/02/01 00:47:49;;;;;;;7.73;6.83;;;;;;;8.68;100.00;153587.81;5053275;28;20450;-95
2024/02/01 00:50:16;;;;;;;8.93;7.13;;;;;;;8.70;100.00;153594.28;5053103;28;20442;-95
2024/02/01 00:52:43;;;;;;;8.30;6.70;;;;;;;8.71;100.00;153595.56;5053221;28;20513;-95
2024/02/01 00:55:10;;;;;;;10.37;7.37;;;;;;;8.70;100.00;153592.97;5052787;28;20433;-94
2024/02/01 00:57:36;;;;;;;11.37;6.63;;;;;;;8.69;100.00;153590.38;5069896;28;20453;-95
2024/02/01 01:00:05;;;;;;;8.90;6.60;;;;;;;8.69;100.00;153590.38;5053286;28;20454;-95
2024/02/01 01:02:32;;;;;;;9.60;7.00;;;;;;;8.67;100.00;153586.50;5069698;28;20442;-95
2024/02/01 01:04:59;;;;;;;10.33;6.40;;;;;;;8.65;100.00;153580.03;5053044;28;20448;-94
2024/02/01 01:07:25;;;;;;;8.10;6.70;;;;;;;8.65;100.00;153580.03;5053145;28;20448;-95
2024/02/01 01:09:52;;;;;;;10.20;6.90;;;;;;;8.67;100.00;153585.22;5053035;28;20434;-95
2024/02/01 01:12:19;;;;;;;7.87;6.10;;;;;;;8.67;100.00;153585.22;5053048;28;21077;-95
2024/02/01 01:14:46;;;;;;;6.83;6.13;;;;;;;8.67;100.00;153586.50;5052819;28;20430;-95
2024/02/01 01:17:14;;;;;;;10.13;7.30;;;;;;;8.68;100.00;153589.13;5052649;28;20516;-95
2024/02/01 01:19:41;;;;;;;11.90;7.03;;;;;;;8.68;100.00;153587.81;5052694;28;20518;-94
2024/02/01 01:22:07;;;;;;;7.70;6.40;;;;;;;8.66;100.00;153583.91;5052743;28;20442;-94
2024/02/01 01:24:34;;;;;;;9.63;7.53;;;;;;;8.67;100.00;153586.50;5052752;28;20426;-95
2024/02/01 01:27:01;;;;;;;8.17;7.20;;;;;;;8.66;100.00;153582.66;5052929;28;20523;-95
2024/02/01 01:29:27;;;;;;;7.07;6.37;;;;;;;8.65;100.00;153580.03;5069614;28;20910;-95
2024/02/01 01:31:54;;;;;;;10.50;7.03;;;;;;;8.66;100.00;153582.66;5052461;28;20570;-95
2024/02/01 01:34:22;;;;;;;9.53;6.87;;;;;;;8.64;100.00;153577.44;5052707;28;20800;-95
2024/02/01 01:36:49;;;;;;;7.83;7.03;;;;;;;8.64;100.00;153577.44;5052947;28;20929;-95
2024/02/01 01:39:15;;;;;;;8.10;6.50;;;;;;;8.64;100.00;153577.44;5052609;28;20485;-94
2024/02/01 01:41:45;;;;;;;7.10;5.90;;;;;;;8.65;100.00;153580.03;5052479;28;20481;-95
2024/02/01 01:44:12;;;;;;;7.60;5.20;;;;;;;8.67;100.00;153585.22;5052632;28;20536;-95
2024/02/01 01:46:39;;;;;;;9.50;5.87;;;;;;;8.69;100.00;153590.38;5053036;28;20434;-95
2024/02/01 01:49:06;;;;;;;9.23;6.50;;;;;;;8.68;100.00;153587.81;5052665;28;20426;-95
2024/02/01 01:51:36;;;;;;;7.17;5.87;;;;;;;8.70;100.00;153592.97;5052795;28;20527;-95
2024/02/01 01:54:05;;;;;;;6.67;5.10;;;;;;;8.73;100.00;153600.72;5052939;28;20431;-95
2024/02/01 01:56:32;;;;;;;6.07;5.00;;;;;;;8.74;100.00;153604.59;5052670;28;20468;-94
2024/02/01 01:58:59;;;;;;;7.97;5.70;;;;;;;8.76;100.00;153608.50;5052485;28;20472;-95
2024/02/01 02:01:26;;;;;;;8.10;4.83;;;;;;;8.76;100.00;153608.50;5052570;28;20445;-95
2024/02/01 02:03:57;;;;;;;9.27;5.97;;;;;;;8.73;100.00;153602.03;5052462;28;20533;-96
2024/02/01 02:06:23;;;;;;;5.50;4.77;;;;;;;8.70;100.00;153592.97;5070837;28;20442;-95
2024/02/01 02:08:51;;;;;;;6.70;5.50;;;;;;;8.71;100.00;153596.81;5056017;28;20873;-94
2024/02/01 02:11:18;;;;;;;7.63;5.43;;;;;;;8.70;100.00;153594.28;5055956;28;20456;-95
2024/02/01 02:13:48;;;;;;;8.40;4.87;;;;;;;8.72;100.00;153598.13;5056066;28;20438;-95
2024/02/01 02:16:16;;;;;;;6.33;5.00;;;;;;;8.72;100.00;153599.44;5055831;28;20991;-94
2024/02/01 02:18:43;;;;;;;7.93;4.87;;;;;;;8.74;100.00;153603.28;5055994;28;20450;-95
2024/02/01 02:21:11;;;;;;;6.93;5.53;;;;;;;8.73;100.00;153600.72;5055741;28;20448;-95
2024/02/01 02:23:39;;;;;;;6.77;5.10;;;;;;;8.76;100.00;153608.50;5055564;28;20503;-95
2024/02/01 02:26:08;;;;;;;6.97;4.90;;;;;;;8.81;100.00;153622.72;5055617;28;20452;-95
2024/02/01 02:28:38;;;;;;;7.00;5.40;;;;;;;8.80;100.00;153620.13;5055537;28;20515;-95
2024/02/01 02:31:05;;;;;;;9.63;6.37;;;;;;;8.79;100.00;153617.50;5055487;28;20909;-95
2024/02/01 02:33:32;;;;;;;6.87;5.03;;;;;;;8.78;100.00;153613.66;5055420;28;21106;-94
2024/02/01 02:35:58;;;;;;;6.70;5.07;;;;;;;8.79;100.00;153616.25;5055553;28;20447;-95
2024/02/01 02:38:26;;;;;;;5.97;4.80;;;;;;;8.79;100.00;153616.25;5055720;28;20865;-95
2024/02/01 02:40:54;;;;;;;6.27;5.03;;;;;;;8.75;100.00;153605.91;5055491;28;20532;-95
2024/02/01 02:43:20;;;;;;;6.63;5.30;;;;;;;8.75;100.00;153605.91;5055440;28;20482;-95
2024/02/01 02:45:47;;;;;;;5.63;5.00;;;;;;;8.72;100.00;153598.13;5055551;28;20438;-95
2024/02/01 02:48:14;;;;;;;6.50;4.87;;;;;;;8.72;100.00;153599.44;5056177;28;20442;-95
2024/02/01 02:50:41;;;;;;;8.23;5.30;;;;;;;8.71;100.00;153595.56;5055288;28;20588;-95
2024/02/01 02:53:08;;;;;;;6.37;5.60;;;;;;;8.71;100.00;153595.56;5055505;28;20585;-95
2024/02/01 02:55:34;;;;;;;6.23;5.57;;;;;;;8.72;100.00;153598.13;5055343;28;20914;-95
2024/02/01 02:58:03;;;;;;;7.70;5.70;;;;;;;8.71;100.00;153595.56;5055258;28;20458;-95
2024/02/01 03:00:32;;;;;;;10.13;6.07;;;;;;;8.70;100.00;153592.97;5054975;28;20450;-95
2024/02/01 03:02:59;;;;;;;7.43;5.30;;;;;;;8.71;100.00;153595.56;5055093;28;20500;-95
2024/02/01 03:05:26;;;;;;;6.83;6.00;;;;;;;8.72;100.00;153599.44;5071876;28;20438;-95
2024/02/01 03:07:54;;;;;;;6.80;5.77;;;;;;;8.68;100.00;153589.13;5054761;28;20458;-95
2024/02/01 03:10:20;;;;;;;6.77;6.10;;;;;;;8.69;100.00;153590.38;5054822;28;21032;-95
2024/02/01 03:12:47;;;;;;;6.70;5.70;;;;;;;8.68;100.00;153587.81;5054681;28;20980;-95
2024/02/01 03:15:15;;;;;;;6.60;4.80;;;;;;;8.69;100.00;153590.38;5054920;28;20911;-95
2024/02/01 03:17:43;;;;;;;6.67;4.67;;;;;;;8.70;100.00;153592.97;5054228;28;20484;-94
2024/02/01 03:20:17;;;;;;;7.33;6.07;;;;;;;8.71;100.00;153596.81;5054702;28;20521;-95
2024/02/01 03:22:46;;;;;;;6.80;5.30;;;;;;;8.71;100.00;153595.56;5054532;28;20457;-95
2024/02/01 03:25:12;;;;;;;6.03;4.60;;;;;;;8.71;100.00;153595.56;5054554;28;20451;-95
2024/02/01 03:27:42;;;;;;;7.53;4.83;;;;;;;8.66;100.00;153582.66;5070827;28;20462;-95
2024/02/01 03:30:11;;;;;;;6.40;4.93;;;;;;;8.67;100.00;153586.50;5054637;28;20453;-95
2024/02/01 03:32:40;;;;;;;8.30;4.60;;;;;;;8.67;100.00;153585.22;5072073;28;20531;-95
2024/02/01 03:35:07;;;;;;;6.40;4.57;;;;;;;8.66;100.00;153582.66;5054500;28;20440;-95
2024/02/01 03:37:34;;;;;;;5.50;4.20;;;;;;;8.62;100.00;153572.28;5054430;28;20442;-95
2024/02/01 03:40:01;;;;;;;5.20;4.33;;;;;;;8.62;100.00;153572.28;5054352;28;20791;-95
2024/02/01 03:42:28;;;;;;;5.90;4.63;;;;;;;8.63;100.00;153574.88;5053838;28;20500;-95
2024/02/01 03:44:54;;;;;;;4.00;3.60;;;;;;;8.56;100.00;153559.38;5054067;28;20423;-95
2024/02/01 03:47:21;;;;;;;5.40;4.40;;;;;;;8.57;100.00;153561.97;5054197;28;20445;-95
2024/02/01 03:49:49;;;;;;;5.50;3.57;;;;;;;8.57;100.00;153561.97;5054166;28;20434;-95
2024/02/01 03:52:20;;;;;;;5.03;4.23;;;;;;;8.60;100.00;153567.13;5053882;28;20470;-94
2024/02/01 03:54:47;;;;;;;5.33;3.80;;;;;;;8.55;100.00;153556.75;5054140;28;20843;-95
2024/02/01 03:57:15;;;;;;;5.00;3.93;;;;;;;8.58;100.00;153564.53;5054018;28;20500;-94
2024/02/01 03:59:43;;;;;;;4.40;3.43;;;;;;;8.58;100.00;153564.53;5070527;28;20430;-95
2024/02/01 04:02:14;;;;;;;4.73;4.30;;;;;;;8.58;100.00;153563.22;5053873;28;20462;-95
2024/02/01 04:04:45;;;;;;;4.30;3.70;;;;;;;8.58;100.00;153564.53;5053895;28;20434;-95
2024/02/01 04:07:16;;;;;;;5.40;4.03;;;;;;;8.56;100.00;153558.06;5053538;28;20444;-95
2024/02/01 04:09:44;;;;;;;4.60;3.07;;;;;;;8.54;100.00;153554.19;5070510;28;20442;-95
2024/02/01 04:12:11;;;;;;;4.50;3.80;;;;;;;8.53;100.00;153551.59;5053463;28;20474;-95
2024/02/01 04:14:38;;;;;;;5.33;3.57;;;;;;;8.52;100.00;153549.00;5053617;28;20442;-95
2024/02/01 04:17:05;;;;;;;4.87;3.30;;;;;;;8.53;100.00;153551.59;5053760;28;20553;-95
2024/02/01 04:19:32;;;;;;;5.90;3.67;;;;;;;8.53;100.00;153551.59;5053686;28;20472;-95
2024/02/01 04:21:58;;;;;;;5.30;3.37;;;;;;;8.56;100.00;153558.06;5053575;28;20438;-95
2024/02/01 04:24:26;;;;;;;4.70;3.77;;;;;;;8.56;100.00;153559.38;5053491;28;20433;-94
2024/02/01 04:26:53;;;;;;;5.77;4.10;;;;;;;8.59;100.00;153565.81;5070146;28;20441;-95
2024/02/01 04:29:19;;;;;;;6.97;3.77;;;;;;;8.57;100.00;153561.97;5052938;28;20473;-95
2024/02/01 04:31:46;;;;;;;4.50;4.00;;;;;;;8.57;100.00;153561.97;5053281;28;20460;-94
2024/02/01 04:34:13;;;;;;;4.20;3.20;;;;;;;8.58;100.00;153564.53;5070121;28;20469;-95
2024/02/01 04:36:39;;;;;;;4.80;3.50;;;;;;;8.60;100.00;153567.13;5053403;28;20478;-95
2024/02/01 04:39:08;;;;;;;3.53;2.63;;;;;;;8.60;100.00;153567.13;5053431;28;20872;-95
2024/02/01 04:41:40;;;;;;;3.50;2.77;;;;;;;8.59;100.00;153565.81;5069761;28;20474;-95
2024/02/01 04:44:08;;;;;;;3.40;2.53;;;;;;;8.61;100.00;153569.69;5053019;28;20485;-94
2024/02/01 04:46:35;;;;;;;4.30;3.10;;;;;;;8.63;100.00;153574.88;5069885;28;20775;-94
2024/02/01 04:49:03;;;;;;;6.10;3.03;;;;;;;8.63;100.00;153574.88;5053407;28;20448;-94
2024/02/01 04:51:30;;;;;;;3.93;3.53;;;;;;;8.65;100.00;153580.03;5053592;28;20474;-94
2024/02/01 04:53:57;;;;;;;4.23;3.23;;;;;;;8.61;100.00;153569.69;5071832;28;20481;-95
2024/02/01 04:56:24;;;;;;;4.40;3.03;;;;;;;8.65;100.00;153580.03;5054145;28;20450;-94
2024/02/01 04:58:52;;;;;;;3.60;2.83;;;;;;;8.63;100.00;153574.88;5053266;28;20444;-94
2024/02/01 05:01:19;;;;;;;3.30;2.90;;;;;;;8.63;100.00;153576.13;5053098;28;20438;-95
2024/02/01 05:03:45;;;;;;;3.47;3.07;;;;;;;8.63;100.00;153574.88;5053383;28;20948;-95
2024/02/01 05:06:12;;;;;;;5.00;2.80;;;;;;;8.63;100.00;153574.88;5052900;28;20521;-95
2024/02/01 05:08:38;;;;;;;3.90;3.07;;;;;;;8.67;100.00;153586.50;5053034;28;20536;-95
2024/02/01 05:11:10;;;;;;;5.03;3.33;;;;;;;8.65;100.00;153581.34;5052947;28;20453;-95
2024/02/01 05:13:36;;;;;;;3.80;3.03;;;;;;;8.68;100.00;153589.13;5069760;28;20535;-95
2024/02/01 05:16:05;;;;;;;4.03;3.20;;;;;;;8.70;100.00;153592.97;5053096;28;20422;-95
2024/02/01 05:18:32;;;;;;;5.50;3.80;;;;;;;8.67;100.00;153586.50;5052924;28;20464;-94
2024/02/01 05:20:59;;;;;;;5.20;3.50;;;;;;;8.65;100.00;153581.34;5052902;28;20441;-95
2024/02/01 05:23:26;;;;;;;4.03;3.47;;;;;;;8.66;100.00;153583.91;5069596;28;20457;-95
2024/02/01 05:25:57;;;;;;;3.80;3.00;;;;;;;8.69;100.00;153590.38;5053181;28;20532;-94
2024/02/01 05:28:24;;;;;;;5.53;3.60;;;;;;;8.67;100.00;153585.22;5053285;28;20441;-95
2024/02/01 05:30:51;;;;;;;3.43;2.90;;;;;;;8.69;100.00;153590.38;5054881;28;20453;-94
2024/02/01 05:33:22;;;;;;;4.83;2.90;;;;;;;8.72;100.00;153598.13;5054737;28;20482;-94
2024/02/01 05:35:52;;;;;;;3.30;2.77;;;;;;;8.71;100.00;153595.56;5054069;28;20457;-95
2024/02/01 05:38:23;;;;;;;3.00;2.70;;;;;;;8.69;100.00;153591.66;5053052;28;20461;-93
2024/02/01 05:40:55;;;;;;;5.10;2.80;;;;;;;8.71;100.00;153596.81;5054594;28;20450;-94
2024/02/01 05:43:29;;;;;;;3.50;3.00;;;;;;;8.70;100.00;153592.97;5033886;28;20929;-95
2024/02/01 05:46:03;;;;;;;4.17;3.13;;;;;;;8.71;100.00;153595.56;5016906;28;20427;-95
2024/02/01 05:48:31;;;;;;;4.67;3.60;;;;;;;8.70;100.00;153592.97;5016541;28;20481;-94
2024/02/01 05:50:59;;;;;;;3.20;2.67;;;;;;;8.67;100.00;153586.50;5000547;28;20439;-94
2024/02/01 05:53:25;;;;;;;3.83;3.10;;;;;;;8.69;100.00;153590.38;5016735;28;20479;-95
2024/02/01 05:55:52;;;;;;;4.97;3.40;;;;;;;8.69;100.00;153590.38;5016647;28;20486;-94
2024/02/01 05:58:19;;;;;;;4.97;3.27;;;;;;;8.69;100.00;153590.38;5016755;28;20463;-95
2024/02/01 06:00:46;;;;;;;4.53;3.10;;;;;;;8.69;100.00;153590.38;5016827;28;20486;-94
2024/02/01 06:03:13;;;;;;;5.27;3.63;;;;;;;8.69;100.00;153590.38;5016036;28;20505;-94
2024/02/01 06:05:41;;;;;;;5.73;3.50;;;;;;;8.68;100.00;153587.81;5016866;28;20436;-94
2024/02/01 06:08:08;;;;;;;5.60;4.67;;;;;;;8.70;100.00;153592.97;5016416;28;20531;-95
2024/02/01 06:10:34;;;;;;;5.10;3.80;;;;;;;8.70;100.00;153592.97;5016158;28;20791;-94
2024/02/01 06:13:01;;;;;;;4.77;3.63;;;;;;;8.69;100.00;153590.38;5016085;28;21024;-95
2024/02/01 06:15:28;;;;;;;6.47;3.30;;;;;;;8.67;100.00;153586.50;5016184;28;20447;-94
2024/02/01 06:17:55;;;;;;;4.10;3.53;;;;;;;8.68;100.00;153589.13;5016396;28;20463;-94
2024/02/01 06:20:23;;;;;;;5.33;3.53;;;;;;;8.68;100.00;153589.13;5016150;28;20478;-94
2024/02/01 06:22:51;;;;;;;4.40;3.87;;;;;;;8.67;100.00;153585.22;5015960;28;20465;-94
2024/02/01 06:25:18;;;;;;;5.50;3.50;;;;;;;8.68;100.00;153589.13;5016555;28;20460;-94
2024/02/01 06:27:45;;;;;;;4.00;3.20;;;;;;;8.68;100.00;153587.81;5016032;28;20762;-94
2024/02/01 06:30:12;;;;;;;4.97;3.80;;;;;;;8.67;100.00;153585.22;5015867;28;20462;-94
2024/02/01 06:32:39;;;;;;;4.40;3.93;;;;;;;8.66;100.00;153582.66;5015631;28;20466;-94
2024/02/01 06:35:13;;;;;;;4.37;3.50;;;;;;;8.63;100.00;153574.88;5015935;28;20439;-93
2024/02/01 06:37:42;;;;;;;4.53;3.33;;;;;;;8.62;100.00;153573.59;5009498;28;20464;-91
2024/02/01 06:40:26;;;;;;;4.63;3.50;;;;;;;8.63;100.00;153574.88;4996259;28;20522;-91
2024/02/01 06:43:08;;;;;;;3.97;2.87;;;;;;;8.65;100.00;153581.34;5028143;28;20489;-93
2024/02/01 06:45:45;;;;;;;3.83;3.43;;;;;;;8.65;100.00;153581.34;5052050;28;21220;-93
2024/02/01 06:48:12;;;;;;;3.80;3.40;;;;;;;8.63;100.00;153574.88;5048749;28;20473;-90
2024/02/01 06:50:54;;;;;;;4.47;3.03;;;;;;;8.64;100.00;153578.75;5047876;28;20859;-88
2024/02/01 06:53:23;;;;;;;4.70;4.00;;;;;;;8.60;100.00;153568.44;5054740;28;20514;-92
2024/02/01 06:56:06;;;;;;;3.63;2.50;;;;;;;8.60;100.00;153567.13;5052002;28;20813;-93
2024/02/01 06:58:47;;;;;;;5.30;3.60;;;;;;;8.57;100.00;153561.97;5053421;28;20505;-93
2024/02/01 07:01:33;;;;;;;4.07;3.30;;;;;;;8.57;100.00;153561.97;5062958;28;20511;-93
2024/02/01 07:04:15;;;;;;;4.77;3.60;;;;;;;8.57;100.00;153560.66;5055004;28;20437;-92
2024/02/01 07:07:04;;;;;;;6.43;4.30;;;;;;;8.56;100.00;153559.38;5046683;28;20537;-92
2024/02/01 07:09:28;;;;;;;3.73;2.90;;;;;;;8.55;100.00;153555.50;5053860;28;20445;-93
2024/02/01 07:12:09;;;;;;;4.70;3.80;;;;;;;8.53;100.00;153550.28;5047509;28;20446;-91
2024/02/01 07:14:39;;;;;;;4.43;3.80;;;;;;;8.49;100.00;153541.28;5049703;28;20225;-91
2024/02/01 07:19:55;;;;;;;5.43;3.60;;;;;;;8.51;100.00;153546.44;5057138;28;20991;-90
2024/02/01 07:22:35;;;;;;;5.17;3.67;;;;;;;8.50;100.00;153543.84;5040777;28;20489;-90
2024/02/01 07:25:10;;;;;;;5.33;3.67;;;;;;;8.49;100.00;153541.28;5072470;28;20473;-88
2024/02/01 07:58:08;;;;;;;8.70;3.47;;;;;;;8.40;100.00;153518.00;5070965;28;20826;-90
2024/02/01 08:00:45;;;;;;;5.80;4.07;;;;;;;8.40;100.00;153518.00;5059965;28;21238;-90
2024/02/01 08:03:32;;;;;;;6.57;3.27;;;;;;;8.40;100.00;153518.00;5058396;28;20541;-89
2024/02/01 08:08:43;;;;;;;3.47;2.80;;;;;;;8.40;100.00;153518.00;5055914;28;20443;-90
2024/02/01 08:11:16;;;;;;;4.17;3.17;;;;;;;8.40;100.00;153516.69;5068763;28;20663;-90
2024/02/01 08:13:48;;;;;;;3.97;3.57;;;;;;;8.42;100.00;153521.84;5072421;28;20458;-90
2024/02/01 08:16:18;;;;;;;3.13;2.40;;;;;;;8.41;100.00;153520.59;5055917;28;20447;-90
2024/02/01 08:18:45;;;;;;;3.60;2.90;;;;;;;8.39;100.00;153515.38;5054555;28;20447;-91
2024/02/01 08:21:15;;;;;;;3.80;2.73;;;;;;;8.43;100.00;153525.75;5041651;28;20442;-91
2024/02/01 08:23:41;;;;;;;3.07;2.47;;;;;;;8.42;100.00;153523.16;5057673;28;20443;-91
2024/02/01 08:26:08;;;;;;;3.77;2.47;;;;;;;8.42;100.00;153523.16;5062753;28;20446;-90
2024/02/01 08:28:35;;;;;;;3.67;3.10;;;;;;;8.40;100.00;153518.00;5052707;28;20451;-90
2024/02/01 08:31:08;;;;;;;3.90;2.80;;;;;;;8.39;100.00;153514.13;5070468;28;20531;-90
2024/02/01 08:33:36;;;;;;;2.80;2.30;;;;;;;8.38;100.00;153512.84;5045688;28;20974;-91
2024/02/01 08:36:03;;;;;;;2.67;2.10;;;;;;;8.38;100.00;153511.53;5056189;28;20528;-90
2024/02/01 08:38:41;;;;;;;7.43;2.70;;;;;;;8.37;100.00;153510.22;5055390;28;20578;-90
2024/02/01 08:41:07;;;;;;;5.00;2.93;;;;;;;8.38;100.00;153511.53;5060162;28;20466;-90
2024/02/01 08:43:38;;;;;;;2.70;2.33;;;;;;;8.40;100.00;153518.00;5054774;28;20507;-90
2024/02/01 08:46:06;;;;;;;3.37;2.63;;;;;;;8.42;100.00;153523.16;5056695;28;20446;-90
2024/02/01 08:48:32;;;;;;;3.80;2.67;;;;;;;8.41;100.00;153520.59;5038105;28;20473;-90
2024/02/01 08:51:00;;;;;;;3.97;2.90;;;;;;;8.44;100.00;153527.06;5050904;28;20576;-91
2024/02/01 08:53:27;;;;;;;3.53;2.63;;;;;;;8.43;100.00;153525.75;5063831;28;20479;-90
2024/02/01 08:55:53;;;;;;;6.87;3.33;;;;;;;8.45;100.00;153530.91;5067084;28;20455;-91
2024/02/01 08:58:20;;;;;;;2.60;2.30;;;;;;;8.45;100.00;153529.63;5060576;28;20504;-91
2024/02/01 09:00:47;;;;;;;4.33;3.00;;;;;;;8.44;100.00;153528.34;5049059;28;20458;-91
2024/02/01 09:03:16;;;;;;;4.00;2.57;;;;;;;8.44;100.00;153527.06;5057527;28;20503;-91
2024/02/01 09:05:44;;;;;;;4.40;2.30;;;;;;;8.46;100.00;153533.53;5038480;28;20483;-91
2024/02/01 09:08:13;;;;;;;3.60;2.67;;;;;;;8.51;100.00;153546.44;5063068;28;20456;-91
2024/02/01 09:11:22;;;;;;;3.23;2.30;;;;;;;8.52;100.00;153547.75;5044910;28;20470;-91
2024/02/01 09:14:00;;;;;;;4.03;2.70;;;;;;;8.53;100.00;153551.59;5059063;28;20563;-91
2024/02/01 09:16:30;;;;;;;4.33;2.90;;;;;;;8.54;100.00;153554.19;5070259;28;20908;-91
2024/02/01 09:18:57;;;;;;;3.80;2.87;;;;;;;8.53;100.00;153551.59;5070764;28;20491;-91
2024/02/01 09:21:24;;;;;;;2.57;2.37;;;;;;;8.56;100.00;153559.38;5070866;28;20452;-91
2024/02/01 09:23:53;;;;;;;2.97;2.20;;;;;;;8.55;100.00;153555.50;5052451;28;20466;-91
2024/02/01 09:26:19;;;;;;;3.37;2.30;;;;;;;8.54;100.00;153554.19;5044911;28;20462;-91
2024/02/01 09:28:46;;;;;;;3.27;2.50;;;;;;;8.54;100.00;153554.19;5054328;28;20453;-91
2024/02/01 09:31:21;;;;;;;3.83;2.50;;;;;;;8.56;100.00;153558.06;5071511;28;20449;-92
2024/02/01 09:33:49;;;;;;;8.37;2.50;;;;;;;8.58;100.00;153564.53;5071418;28;20469;-92
2024/02/01 09:36:16;;;;;;;3.40;2.20;;;;;;;8.62;100.00;153572.28;5054678;28;20479;-92
2024/02/01 09:38:43;;;;;;;2.97;2.10;;;;;;;8.65;100.00;153580.03;5054724;28;20442;-93
2024/02/01 09:41:16;;;;;;;3.40;2.37;;;;;;;8.65;100.00;153581.34;5071145;28;20951;-92
2024/02/01 09:43:47;;;;;;;4.07;3.17;;;;;;;8.68;100.00;153587.81;5071586;28;20418;-92
2024/02/01 09:46:16;;;;;;;3.20;2.10;;;;;;;8.71;100.00;153595.56;5072498;28;20497;-92
2024/02/01 09:48:42;;;;;;;2.30;2.10;;;;;;;8.72;100.00;153598.13;5089471;28;20513;-92
2024/02/01 09:51:17;;;;;;;2.50;2.20;;;;;;;8.71;100.00;153596.81;5055767;28;20494;-92
2024/02/01 09:53:46;;;;;;;3.67;2.40;;;;;;;8.73;100.00;153602.03;5073658;28;21009;-92
2024/02/01 09:56:14;;;;;;;3.63;2.77;;;;;;;8.75;100.00;153607.19;5072089;28;20476;-91
2024/02/01 09:58:41;;;;;;;2.30;2.00;;;;;;;8.78;100.00;153613.66;5055142;28;20462;-93
2024/02/01 10:01:09;;;;;;;3.43;2.90;;;;;;;8.80;100.00;153620.13;5072219;28;20467;-92
2024/02/01 10:03:36;;;;;;;4.47;2.53;;;;;;;8.81;100.00;153621.41;5071744;28;20452;-92
2024/02/01 10:06:04;;;;;;;4.20;2.37;;;;;;;8.82;100.00;153625.28;5072213;28;20497;-92
2024/02/01 10:08:33;;;;;;;2.27;2.00;;;;;;;8.84;100.00;153629.19;5072243;28;20438;-91
2024/02/01 10:11:03;;;;;;;3.00;2.47;;;;;;;8.88;100.00;153639.50;5073342;28;20445;-91
2024/02/01 10:13:34;;;;;;;4.37;2.60;;;;;;;8.91;100.00;153647.28;5063193;28;20449;-92
2024/02/01 10:16:01;;;;;;;3.00;2.40;;;;;;;8.92;100.00;153651.13;5067897;28;20499;-92
2024/02/01 10:18:27;;;;;;;3.30;2.40;;;;;;;8.95;100.00;153658.91;5072053;28;20446;-92
2024/02/01 10:20:57;;;;;;;3.17;2.53;;;;;;;8.96;100.00;153661.50;5055358;28;20453;-91
2024/02/01 10:23:24;;;;;;;3.00;2.60;;;;;;;9.00;100.00;153671.81;5067116;28;21069;-93
2024/02/01 10:25:53;;;;;;;4.30;3.53;;;;;;;9.03;100.00;153679.59;5071641;28;20444;-92
2024/02/01 10:28:22;;;;;;;14.90;3.10;;;;;;;9.11;100.00;153698.97;5054853;28;20450;-92
2024/02/01 10:30:50;;;;;;;3.40;2.40;;;;;;;9.11;100.00;153698.97;5055044;28;20530;-92
2024/02/01 10:33:18;;;;;;;4.50;2.97;;;;;;;9.10;100.00;153696.41;5055021;28;20772;-92
2024/02/01 10:35:48;;;;;;;3.57;2.50;;;;;;;9.15;100.00;153709.34;5054598;28;20516;-92
2024/02/01 10:38:21;;;;;;;2.73;2.37;;;;;;;9.15;100.00;153709.34;5055038;28;20821;-92
2024/02/01 10:40:59;;;;;;;3.53;2.70;;;;;;;9.16;100.00;153711.91;5054684;28;20812;-92
2024/02/01 10:43:27;;;;;;;3.20;2.90;;;;;;;9.19;100.00;153719.69;5054657;28;20426;-92
2024/02/01 10:46:05;;;;;;;3.47;2.80;;;;;;;9.20;100.00;153722.28;5054687;28;20874;-92
2024/02/01 10:48:35;;;;;;;2.93;1.97;;;;;;;9.21;100.00;153723.59;5047983;28;20806;-92
2024/02/01 10:51:09;;;;;;;2.83;2.43;;;;;;;9.25;100.00;153733.91;5054573;28;20521;-92
2024/02/01 10:53:39;;;;;;;2.90;2.10;;;;;;;9.27;100.00;153740.38;5054461;28;20454;-92
2024/02/01 10:56:13;;;;;;;3.40;2.00;;;;;;;9.29;100.00;153745.59;5045650;28;20460;-92
2024/02/01 10:58:45;;;;;;;2.43;1.90;;;;;;;9.31;100.00;153750.75;5044871;28;20442;-92
2024/02/01 11:01:15;;;;;;;2.40;1.70;;;;;;;9.33;100.00;153754.59;5051193;28;20500;-92
2024/02/01 11:03:49;;;;;;;2.90;2.03;;;;;;;9.34;100.00;153758.50;5060771;28;20511;-91
2024/02/01 11:06:16;;;;;;;3.00;2.30;;;;;;;9.37;100.00;153764.97;5053985;28;20771;-92
2024/02/01 11:08:43;;;;;;;2.27;1.77;;;;;;;9.37;100.00;153764.97;5054296;28;20465;-92
2024/02/01 11:11:17;;;;;;;2.00;1.53;;;;;;;9.40;100.00;153772.75;5054149;28;20958;-92
2024/02/01 11:13:47;;;;;;;2.33;1.80;;;;;;;9.42;100.00;153779.22;5054541;28;20444;-92
2024/02/01 11:16:15;;;;;;;1.67;1.23;;;;;;;9.42;100.00;153779.22;5054599;28;20503;-92
2024/02/01 11:18:49;;;;;;;2.00;1.60;;;;;;;9.45;100.00;153785.69;5053993;28;20426;-92
2024/02/01 11:21:25;;;;;;;2.47;1.87;;;;;;;9.43;100.00;153781.75;5053970;28;20441;-90
2024/02/01 11:23:51;;;;;;;1.60;1.37;;;;;;;9.47;100.00;153792.13;5048976;28;20472;-92
2024/02/01 11:26:18;;;;;;;1.73;1.27;;;;;;;9.50;100.00;153799.91;5054223;28;20460;-92
2024/02/01 11:28:47;;;;;;;1.90;1.30;;;;;;;9.54;100.00;153808.94;5054255;28;20426;-92
2024/02/01 11:31:16;;;;;;;1.23;1.07;;;;;;;9.59;100.00;153823.16;5053881;28;20446;-92
2024/02/01 11:33:43;;;;;;;1.87;1.37;;;;;;;9.62;100.00;153829.63;5053900;28;20431;-92
2024/02/01 11:36:10;;;;;;;1.60;1.07;;;;;;;9.64;100.00;153836.09;5053649;28;20485;-92
2024/02/01 11:38:40;;;;;;;2.07;1.57;;;;;;;9.71;100.00;153852.94;5053634;28;20478;-92
2024/02/01 11:41:08;;;;;;;2.00;1.50;;;;;;;9.80;100.00;153876.22;5053388;28;20825;-92
2024/02/01 11:43:38;;;;;;;1.40;0.90;;;;;;;9.82;100.00;153882.69;5053252;28;20434;-91
2024/02/01 11:46:06;;;;;;;1.57;0.90;;;;;;;9.84;100.00;153886.59;5053176;28;20552;-92
2024/02/01 11:48:34;;;;;;;3.37;1.13;;;;;;;9.86;100.00;153890.44;5053628;28;20465;-92
2024/02/01 11:51:01;;;;;;;1.80;1.03;;;;;;;9.87;100.00;153894.34;5053398;28;20921;-92
2024/02/01 11:53:28;;;;;;;1.50;1.13;;;;;;;9.89;100.00;153899.53;5053429;28;20433;-92
2024/02/01 11:55:55;;;;;;;1.60;1.10;;;;;;;9.89;100.00;153898.22;5053152;28;20481;-92
2024/02/01 11:58:24;;;;;;;2.13;1.17;;;;;;;9.91;100.00;153904.69;5053500;28;20868;-91
2024/02/01 12:00:55;;;;;;;1.70;1.40;;;;;;;9.93;100.00;153909.84;5052840;28;20450;-92
2024/02/01 12:03:22;;;;;;;1.63;1.33;;;;;;;9.99;100.00;153924.09;5053500;28;20438;-92
2024/02/01 12:05:51;;;;;;;1.83;1.07;;;;;;;10.00;100.00;153926.69;5053203;28;21115;-91
2024/02/01 12:08:19;;;;;;;1.23;1.00;;;;;;;10.03;100.00;153934.47;5051234;28;20446;-92